Flight Track Log - Related Links

Times and Time Zones

All times are in EDT time to prevent confusion due to time zone crossing. See the SWA158 flight status page for this flight to view local times or setup timezone preferences in your user account.

Time Position Orientation Groundspeed Altitude Reporting Facility
EDT Latitude Longitude Course Direction KTS MPH feet Rate Location/Type
Tue 02:49:56 PM 41.8000 -87.7000 86° East 177 204 2,300  Level Chicago TRACON
Tue 02:51:26 PM 41.7897 -87.5736 96° East 244 281 4,600 2,132 Climbing Chicago Center
Tue 02:52:28 PM 41.8058 -87.4658 79° East 279 321 7,700 2,806 Climbing Chicago Center
Tue 02:53:30 PM 41.7944 -87.3481 97° East 317 365 10,400 2,829 Climbing Chicago Center
Tue 02:54:31 PM 41.7797 -87.2189 99° East 344 396 13,500 3,122 Climbing Chicago Center
Tue 02:55:00 PM 41.7522 -86.7771 86° East  Level FlightAware Approximate
Tue 02:55:33 PM 41.7636 -87.0858 99° East 360 414 16,800  Level Chicago Center
Tue 02:56:35 PM 41.7619 -86.9439 91° East 381 438 19,500 2,371 Climbing Chicago Center
Tue 02:57:37 PM 41.7644 -86.7547 89° East 430 495 21,700 2,032 Climbing Chicago Center
Tue 02:58:39 PM 41.7658 -86.6003 89° East 454 522 23,700 2,146 Climbing Chicago Center
Tue 02:59:40 PM 41.7678 -86.4228 89° East 474 545 26,100 2,098 Climbing Chicago Center
Tue 03:00:42 PM 41.7806 -86.2422 85° East 486 559 28,000 1,887 Climbing Chicago Center
Tue 03:01:44 PM 41.8197 -86.0219 77° East 505 581 30,000 1,790 Climbing Chicago Center
Tue 03:02:46 PM 41.8519 -85.8322 77° East 516 594 31,700 1,645 Climbing Chicago Center
Tue 03:03:48 PM 41.8842 -85.6381 77° East 527 606 33,400 1,610 Climbing Chicago Center
Tue 03:04:49 PM 41.9175 -85.4417 77° East 533 613 35,000 1,448 Climbing Chicago Center
Tue 03:05:15 PM 41.9339 -85.3514 76° East 524 603 35,500 1,256 Climbing Cleveland Center
Tue 03:06:15 PM 41.9544 -85.1517 82° East 529 609 36,800 1,250 Climbing Cleveland Center
Tue 03:07:15 PM 41.9539 -84.9533 90° East 529 609 38,000 850 Climbing Cleveland Center
Tue 03:08:15 PM 41.9508 -84.7519 91° East 534 615 38,500 500 Climbing Cleveland Center
Tue 03:09:15 PM 41.9497 -84.5508 90° East 534 615 39,000 250 Climbing Cleveland Center
Tue 03:10:15 PM 41.9483 -84.3469 90° East 539 620 39,000  Level Cleveland Center
Tue 03:11:15 PM 41.9414 -84.1678 93° East 534 615 39,000  Level Cleveland Center
Tue 03:12:15 PM 41.9394 -83.9583 91° East 540 621 39,000  Level Cleveland Center
Tue 03:13:15 PM 41.9369 -83.7569 91° East 540 621 39,000  Level Cleveland Center
Tue 03:14:15 PM 41.9344 -83.5364 91° East 540 621 39,000  Level Cleveland Center
Tue 03:15:15 PM 41.9331 -83.3381 90° East 530 610 39,000  Level Cleveland Center
Tue 03:16:15 PM 41.9294 -83.1369 91° East 536 617 39,000  Level Cleveland Center
Tue 03:17:15 PM 41.9294 -82.9389 90° East 536 617 39,000  Level Cleveland Center
Tue 03:18:15 PM 41.9272 -82.7378 91° East 529 609 39,000  Level Cleveland Center
Tue 03:19:15 PM 41.9267 -82.5422 90° East 529 609 39,000  Level Cleveland Center
Tue 03:20:15 PM 41.9236 -82.3442 91° East 535 616 39,000  Level Cleveland Center
Tue 03:21:15 PM 41.9203 -82.1431 91° East 535 616 39,000  Level Cleveland Center
Tue 03:22:15 PM 41.9203 -81.9617 90° East 535 616 39,000  Level Cleveland Center
Tue 03:23:15 PM 41.9269 -81.7608 87° East 535 616 39,000  Level Cleveland Center
Tue 03:24:15 PM 41.9517 -81.5408 81° East 535 616 39,000  Level Cleveland Center
Tue 03:25:15 PM 41.9719 -81.3428 82° East 540 621 39,000  Level Cleveland Center
Tue 03:26:15 PM 41.9919 -81.1447 82° East 540 621 39,000  Level Cleveland Center
Tue 03:27:15 PM 42.0114 -80.9492 82° East 540 621 39,000  Level Cleveland Center
Tue 03:28:15 PM 42.0350 -80.7508 81° East 540 621 39,000  Level Cleveland Center
Tue 03:29:15 PM 42.0539 -80.5525 83° East 540 621 39,000  Level Cleveland Center
Tue 03:30:15 PM 42.0744 -80.3539 82° East 535 616 39,000  Level Cleveland Center
Tue 03:31:15 PM 42.0906 -80.1775 83° East 535 616 39,000  Level Cleveland Center
Tue 03:32:15 PM 42.1106 -79.9617 83° East 535 616 39,000  Level Cleveland Center
Tue 03:33:15 PM 42.1281 -79.7853 82° East 535 616 39,000  Level Cleveland Center
Tue 03:34:15 PM 42.1475 -79.5889 82° East 535 616 39,000  Level Cleveland Center
Tue 03:35:15 PM 42.1664 -79.3953 82° East 530 610 39,000  Level Cleveland Center
Tue 03:36:15 PM 42.1831 -79.1961 83° East 525 604 39,000  Level Cleveland Center
Tue 03:37:15 PM 42.2036 -79.0050 82° East 520 598 39,000  Level Cleveland Center
Tue 03:38:15 PM 42.2297 -78.8108 80° East 520 598 39,000  Level Cleveland Center
Tue 03:39:15 PM 42.2539 -78.6167 80° East 525 604 39,000  Level Cleveland Center
Tue 03:40:15 PM 42.2794 -78.4222 80° East 525 604 39,000  Level Cleveland Center
Tue 03:41:15 PM 42.3028 -78.2250 81° East 525 604 39,000  Level Cleveland Center
Tue 03:42:15 PM 42.3258 -78.0331 81° East 525 604 39,000  Level Cleveland Center
Tue 03:43:15 PM 42.3483 -77.8411 81° East 525 604 39,000  Level Cleveland Center
Tue 03:44:15 PM 42.3686 -77.6461 82° East 525 604 39,000  Level Cleveland Center
Tue 03:46:39 PM 42.4219 -77.1914 81° East 531 611 39,000  Level Boston Center
Tue 03:47:37 PM 42.4472 -76.9764 81° East 518 596 39,000  Level Boston Center
Tue 03:48:38 PM 42.4675 -76.7836 82° East 518 596 39,000  Level Boston Center
Tue 03:49:39 PM 42.4869 -76.5936 82° East 518 596 39,000  Level Boston Center
Tue 03:50:37 PM 42.5086 -76.3978 81° East 518 596 39,000  Level Boston Center
Tue 03:51:38 PM 42.5247 -76.2269 83° East 513 590 39,000  Level Boston Center
Tue 03:52:38 PM 42.5478 -76.0336 81° East 513 590 39,000  Level Boston Center
Tue 03:53:50 PM 42.6253 -75.8858 54° Northeast 495 570 39,000  Level Boston Center
Tue 03:54:52 PM 42.7364 -75.7308 46° Northeast 474 545 39,000  Level Boston Center
Tue 03:55:49 PM 42.8053 -75.5731 59° Northeast 451 519 39,000  Level Boston Center
Tue 03:56:50 PM 42.8003 -75.3747 92° East 484 557 39,000 -393 Level Boston Center
Tue 03:57:51 PM 42.7947 -75.1792 92° East 510 587 38,200 -1,636 Descending Boston Center
Tue 03:58:51 PM 42.7889 -74.9808 92° East 519 597 35,700 -2,777 Descending Boston Center
Tue 03:59:52 PM 42.7825 -74.7881 93° East 519 597 32,600 -2,390 Descending Boston Center
Tue 04:00:49 PM 42.7447 -74.6000 105° East 519 597 31,000 -1,169 Descending Boston Center
Tue 04:01:50 PM 42.6914 -74.4286 113° Southeast 503 579 30,300 -496 Descending Boston Center
Tue 04:02:50 PM 42.6106 -74.2878 128° Southeast 474 545 30,000 -446 Descending Boston Center
Tue 04:03:51 PM 42.6028 -74.1100 93° East 451 519 29,400 -793 Descending Boston Center
Tue 04:04:51 PM 42.6261 -73.9300 80° East 457 526 28,400 -1,000 Descending Boston Center
Tue 04:05:51 PM 42.6450 -73.7497 82° East 463 533 27,400 -1,008 Descending Boston Center
Tue 04:06:50 PM 42.6678 -73.5781 80° East 468 539 26,400 -1,000 Descending Boston Center
Tue 04:07:51 PM 42.6861 -73.3892 82° East 462 532 25,400 -1,033 Descending Boston Center
Tue 04:08:52 PM 42.7042 -73.2197 82° East 462 532 24,300 -1,322 Descending Boston Center
Tue 04:09:49 PM 42.7217 -73.0533 82° East 457 526 22,800 -1,692 Descending Boston Center
Tue 04:10:49 PM 42.7350 -72.8981 83° East 450 518 21,000 -1,884 Descending Boston Center
Tue 04:11:50 PM 42.7544 -72.7314 81° East 426 490 19,000 -1,657 Descending Boston Center
Tue 04:13:03 PM 42.7692 -72.5731 83° East 416 479 17,300 -1,985 Descending Boston Center
Tue 04:14:03 PM 42.7858 -72.3864 83° East 416 479 14,600 -2,450 Descending Boston Center
Tue 04:15:03 PM 42.8003 -72.2336 83° East 411 473 12,400 -1,983 Descending Boston Center
Tue 04:16:04 PM 42.8083 -72.1006 85° East 399 459 10,600 -1,424 Descending Boston Center
Tue 04:17:01 PM 42.8203 -71.9561 84° East 362 417 9,600 -1,169 Descending Boston Center
Tue 04:18:02 PM 42.8447 -71.8483 73° East 330 380 8,300 -1,377 Descending Boston Center
Tue 04:19:03 PM 42.9069 -71.7483 50° Northeast 314 361 6,800 -1,664 Descending Boston Center
Tue 04:20:01 PM 42.9583 -71.6656 50° Northeast 309 356 5,000 -1,311 Descending Boston Center
Tue 04:21:02 PM 43.0244 -71.5881 41° Northeast 297 342 4,200 -1,033 Descending Boston Center
Tue 04:22:03 PM 43.0658 -71.5278 47° Northeast 260 299 2,900 -1,091 Descending Boston Center
Tue 04:23:03 PM 43.0322 -71.4942 144° Southeast 131 151 2,000 -661 Descending Boston Center
Tue 04:24:01 PM 43.0028 -71.4778 158° South 127 146 1,600 -605 Descending Boston Center
Tue 04:25:02 PM 42.9672 -71.4556 155° Southeast 127 146 800 -595 Descending Boston Center
Tue 04:26:02 PM 42.9378 -71.4389 157° South 127 146 400 9,025 Descending Boston Center
Tue 04:27:03 PM 42.9064 -71.4253 162° South 127 146 19,000 9,223 Climbing Boston Center
Tue 04:28:03 PM 42.8750 -71.4117 162° South 127 146 19,000  Level Boston Center
Tue 04:29:02 PM 42.8436 -71.3981 162° South 127 146 19,000  Level Boston Center
Tue 04:31:00 PM 42.9167 -71.4333 316° Northwest  Level FlightAware Approximate
Tue 04:38:00 PM 42.9328 -71.4358 316° Northwest  Level Estimated
Tue 04:39:00 PM 42.9328 -71.4358 316° Northwest  Level Estimated
Tue 04:40:00 PM 42.9328 -71.4358 316° Northwest  Level Estimated

Login

Don't have an account? Register now (free) for customized features, flight alerts, and more!